createdAt,value
2022-12-03T00:04:49.999Z,101539.81
2022-12-03T00:09:51.431Z,101537.47
2022-12-03T00:14:52.961Z,101541.22
2022-12-03T00:19:54.335Z,101543.72
2022-12-03T00:24:55.999Z,101539.97
2022-12-03T00:29:57.574Z,101532.59
2022-12-03T00:34:58.913Z,101536.13
2022-12-03T00:40:00.278Z,101534.00
2022-12-03T00:45:01.646Z,101534.22
2022-12-03T00:50:03.166Z,101533.16
2022-12-03T00:55:04.640Z,101533.28
2022-12-03T01:00:06.617Z,101522.50
2022-12-03T01:05:08.257Z,101527.44
2022-12-03T01:10:09.946Z,101524.50
2022-12-03T01:15:11.338Z,101530.69
2022-12-03T01:20:12.764Z,101532.34
2022-12-03T01:25:14.379Z,101531.41
2022-12-03T01:30:15.723Z,101529.88
2022-12-03T01:35:17.062Z,101524.50
2022-12-03T01:40:19.778Z,101526.94
2022-12-03T01:45:22.629Z,101530.22
2022-12-03T01:50:31.768Z,101524.84
2022-12-03T01:55:33.189Z,101526.50
2022-12-03T02:00:34.554Z,101527.06
2022-12-03T02:05:36.326Z,101519.81
2022-12-03T02:10:38.345Z,101524.38
2022-12-03T02:15:40.372Z,101523.22
2022-12-03T02:20:46.734Z,101522.88
2022-12-03T02:25:48.118Z,101521.91
2022-12-03T02:30:49.455Z,101513.50
2022-12-03T02:35:50.803Z,101515.59
2022-12-03T02:40:53.901Z,101514.44
2022-12-03T02:45:56.655Z,101506.56
2022-12-03T02:51:00.414Z,101511.63
2022-12-03T02:56:02.606Z,101515.94
2022-12-03T03:01:04.232Z,101507.97
2022-12-03T03:06:06.810Z,101512.78
2022-12-03T03:11:08.314Z,101509.03
2022-12-03T03:16:09.882Z,101506.19
2022-12-03T03:21:12.278Z,101495.06
2022-12-03T03:26:13.749Z,101497.53
2022-12-03T03:31:16.456Z,101495.53
2022-12-03T03:36:18.379Z,101478.69
2022-12-03T03:41:21.090Z,101482.66
2022-12-03T03:46:22.826Z,101484.41
2022-12-03T03:51:24.261Z,101488.28
2022-12-03T03:56:25.982Z,101476.56
2022-12-03T04:01:27.744Z,101472.34
2022-12-03T04:06:29.124Z,101475.75
2022-12-03T04:11:49.267Z,101476.00
2022-12-03T04:16:50.685Z,101475.88
2022-12-03T04:22:30.638Z,101483.38
2022-12-03T04:27:50.701Z,101490.88
2022-12-03T04:33:10.540Z,101486.31
2022-12-03T04:38:12.807Z,101479.75
2022-12-03T04:43:14.192Z,101480.09
2022-12-03T04:48:15.569Z,101479.28
2022-12-03T04:53:17.217Z,101479.84
2022-12-03T04:58:18.533Z,101488.31
2022-12-03T05:03:19.853Z,101479.16
2022-12-03T05:08:21.159Z,101478.00
2022-12-03T05:13:22.491Z,101466.97
2022-12-03T05:18:23.976Z,101461.94
2022-12-03T05:23:25.355Z,101456.31
2022-12-03T05:28:26.728Z,101454.78
2022-12-03T05:33:28.102Z,101458.78
2022-12-03T05:38:29.423Z,101450.34
2022-12-03T05:43:30.731Z,101451.97
2022-12-03T05:48:32.064Z,101447.28
2022-12-03T05:53:33.412Z,101443.78
2022-12-03T05:58:34.756Z,101455.38
2022-12-03T06:03:36.299Z,101450.13
2022-12-03T06:08:37.718Z,101448.22
2022-12-03T06:13:39.037Z,101450.56
2022-12-03T06:18:40.358Z,101449.53
2022-12-03T06:23:44.712Z,101454.69
2022-12-03T06:28:47.637Z,101444.13
2022-12-03T06:33:49.006Z,101448.72
2022-12-03T06:38:50.311Z,101445.91
2022-12-03T06:43:51.640Z,101455.38
2022-12-03T06:48:52.971Z,101451.97
2022-12-03T06:53:54.317Z,101453.72
2022-12-03T06:58:55.693Z,101451.84
2022-12-03T07:03:57.003Z,101446.69
2022-12-03T07:08:58.366Z,101448.72
2022-12-03T07:14:05.129Z,101458.78
2022-12-03T07:19:07.297Z,101447.06
2022-12-03T07:24:09.013Z,101454.09
2022-12-03T07:29:13.490Z,101447.06
2022-12-03T07:34:14.890Z,101449.53
2022-12-03T07:39:16.236Z,101446.59
2022-12-03T07:44:17.637Z,101449.28
2022-12-03T07:49:18.993Z,101449.16
2022-12-03T07:54:20.943Z,101440.25
2022-12-03T07:59:22.380Z,101443.78
2022-12-03T08:04:23.822Z,101445.66
2022-12-03T08:09:25.156Z,101458.28
2022-12-03T08:14:27.413Z,101451.97
2022-12-03T08:19:28.754Z,101456.44
2022-12-03T08:24:30.331Z,101462.97
2022-12-03T08:29:31.649Z,101462.50
2022-12-03T08:34:37.881Z,101457.69
2022-12-03T08:39:55.021Z,101460.03
2022-12-03T08:44:56.835Z,101455.91
2022-12-03T08:50:03.303Z,101457.31
2022-12-03T08:55:24.653Z,101459.19
2022-12-03T09:00:26.306Z,101463.06
2022-12-03T09:05:34.789Z,101467.41
2022-12-03T09:10:36.414Z,101469.97
2022-12-03T09:15:37.721Z,101464.81
2022-12-03T09:20:39.057Z,101460.72
2022-12-03T09:25:40.366Z,101451.41
2022-12-03T09:30:41.702Z,101460.78
2022-12-03T09:35:43.094Z,101450.25
2022-12-03T09:40:44.398Z,101450.53
2022-12-03T09:45:46.353Z,101456.75
2022-12-03T09:50:48.169Z,101449.25
2022-12-03T09:55:49.587Z,101442.34
2022-12-03T10:00:52.268Z,101448.34
2022-12-03T10:05:53.684Z,101445.13
2022-12-03T10:10:56.604Z,101436.34
2022-12-03T10:15:59.357Z,101431.09
2022-12-03T10:21:00.838Z,101430.31
2022-12-03T10:26:03.612Z,101420.88
2022-12-03T10:31:06.317Z,101404.00
2022-12-03T10:36:15.001Z,101404.47
2022-12-03T10:41:27.296Z,101402.00
2022-12-03T10:46:28.734Z,101389.03
2022-12-03T10:51:30.375Z,101389.75
2022-12-03T10:56:31.859Z,101382.00
2022-12-03T11:01:33.251Z,101378.66
2022-12-03T11:06:34.718Z,101370.41
2022-12-03T11:11:36.217Z,101350.88
2022-12-03T11:16:40.342Z,101359.03
2022-12-03T11:22:00.530Z,101347.75
2022-12-03T11:27:01.823Z,101358.72
2022-12-03T11:32:03.188Z,101358.78
2022-12-03T11:37:10.664Z,101347.88
2022-12-03T11:42:27.340Z,101342.28
2022-12-03T11:47:29.460Z,101340.72
2022-12-03T11:52:33.021Z,101337.94
2022-12-03T11:57:38.538Z,101333.09
2022-12-03T12:02:40.031Z,101328.63
2022-12-03T12:07:41.888Z,101326.59
2022-12-03T12:12:53.294Z,101317.72
2022-12-03T12:17:56.175Z,101311.88
2022-12-03T12:23:17.441Z,101311.09
2022-12-03T12:28:18.749Z,101299.97
2022-12-03T12:33:24.353Z,101298.28
2022-12-03T12:38:28.432Z,101292.59
2022-12-03T12:43:31.732Z,101290.97
2022-12-03T12:48:36.141Z,101283.94
2022-12-03T12:53:38.788Z,101276.19
2022-12-03T12:58:40.309Z,101275.13
2022-12-03T13:03:41.619Z,101270.63
2022-12-03T13:08:45.045Z,101273.97
2022-12-03T13:13:46.365Z,101262.22
2022-12-03T13:18:49.358Z,101262.72
2022-12-03T13:23:52.094Z,101262.72
2022-12-03T13:28:55.648Z,101257.72
2022-12-03T13:33:57.899Z,101257.31
2022-12-03T13:38:59.289Z,101248.06
2022-12-03T13:44:00.600Z,101246.13
2022-12-03T13:49:02.295Z,101243.56
2022-12-03T13:54:05.417Z,101241.31
2022-12-03T13:59:07.368Z,101239.75
2022-12-03T14:04:08.759Z,101233.63
2022-12-03T14:09:10.088Z,101239.91
2022-12-03T14:14:11.455Z,101224.94
2022-12-03T14:19:13.277Z,101222.16
2022-12-03T14:24:14.593Z,101220.72
2022-12-03T14:29:15.913Z,101215.06
2022-12-03T14:34:17.219Z,101215.78
2022-12-03T14:39:18.593Z,101216.88
2022-12-03T14:44:21.932Z,101212.63
2022-12-03T14:49:23.259Z,101219.28
2022-12-03T14:54:24.562Z,101227.59
2022-12-03T14:59:27.864Z,101227.88
2022-12-03T15:04:29.465Z,101219.56
2022-12-03T15:09:30.862Z,101224.44
2022-12-03T15:14:32.198Z,101216.13
2022-12-03T15:19:33.611Z,101217.84
2022-12-03T15:24:34.918Z,101222.34
2022-12-03T15:29:36.255Z,101229.84
2022-12-03T15:34:37.764Z,101230.31
2022-12-03T15:39:43.706Z,101237.50
2022-12-03T15:44:49.440Z,101236.66
2022-12-03T15:49:50.767Z,101226.44
2022-12-03T15:54:52.114Z,101225.56
2022-12-03T15:59:54.423Z,101232.22
2022-12-03T16:04:55.854Z,101223.50
2022-12-03T16:09:57.328Z,101227.06
2022-12-03T16:14:59.016Z,101221.69
2022-12-03T16:20:00.435Z,101223.56
2022-12-03T16:25:03.139Z,101223.66
2022-12-03T16:30:05.588Z,101222.53
2022-12-03T16:35:07.169Z,101217.38
2022-12-03T16:40:08.770Z,101214.63
2022-12-03T16:45:10.277Z,101211.22
2022-12-03T16:50:16.442Z,101212.72
2022-12-03T16:55:22.386Z,101221.16
2022-12-03T17:00:25.787Z,101217.38
2022-12-03T17:05:27.106Z,101220.53
2022-12-03T17:10:28.495Z,101218.28
2022-12-03T17:15:30.466Z,101216.25
2022-12-03T17:20:32.657Z,101209.47
2022-12-03T17:25:34.459Z,101212.41
2022-12-03T17:30:35.805Z,101209.03
2022-12-03T17:35:37.201Z,101200.47
2022-12-03T17:40:38.817Z,101204.56
2022-12-03T17:45:40.515Z,101204.81
2022-12-03T17:50:42.018Z,101200.72
2022-12-03T17:55:45.198Z,101199.22
2022-12-03T18:00:46.757Z,101189.16
2022-12-03T18:05:48.119Z,101182.50
2022-12-03T18:10:49.579Z,101187.09
2022-12-03T18:15:50.994Z,101188.72
2022-12-03T18:20:53.206Z,101182.44
2022-12-03T18:25:54.867Z,101175.84
2022-12-03T18:30:56.355Z,101174.22
2022-12-03T18:35:58.265Z,101176.78
2022-12-03T18:40:59.863Z,101174.63
2022-12-03T18:46:01.167Z,101181.09
2022-12-03T18:51:02.503Z,101169.72
2022-12-03T18:56:03.881Z,101176.97
2022-12-03T19:01:05.766Z,101171.03
2022-12-03T19:06:14.154Z,101170.78
2022-12-03T19:11:18.483Z,101186.66
2022-12-03T19:16:19.893Z,101178.66
2022-12-03T19:21:21.630Z,101169.09
2022-12-03T19:26:23.015Z,101168.84
2022-12-03T19:31:24.659Z,101175.38
2022-12-03T19:36:27.609Z,101178.41
2022-12-03T19:41:32.510Z,101175.28
2022-12-03T19:46:33.888Z,101168.34
2022-12-03T19:51:36.039Z,101159.00
2022-12-03T19:56:37.818Z,101164.91
2022-12-03T20:01:41.037Z,101165.56
2022-12-03T20:06:42.537Z,101153.78
2022-12-03T20:11:49.694Z,101158.53
2022-12-03T20:16:51.791Z,101156.91
2022-12-03T20:21:56.390Z,101163.00
2022-12-03T20:27:02.248Z,101162.31
2022-12-03T20:32:04.873Z,101164.50
2022-12-03T20:37:06.345Z,101159.59
2022-12-03T20:42:08.965Z,101151.56
2022-12-03T20:47:10.362Z,101144.94
2022-12-03T20:52:11.745Z,101151.75
2022-12-03T20:57:13.123Z,101153.22
2022-12-03T21:02:14.727Z,101151.88
2022-12-03T21:07:16.243Z,101142.75
2022-12-03T21:12:17.621Z,101151.44
2022-12-03T21:17:19.345Z,101146.16
2022-12-03T21:22:20.755Z,101154.69
2022-12-03T21:27:22.161Z,101147.50
2022-12-03T21:32:23.524Z,101155.78
2022-12-03T21:37:24.856Z,101152.41
2022-12-03T21:42:36.652Z,101142.19
2022-12-03T21:47:38.373Z,101141.63
2022-12-03T21:52:39.896Z,101147.25
2022-12-03T21:57:41.281Z,101136.22
2022-12-03T22:02:42.890Z,101127.28
2022-12-03T22:07:44.309Z,101134.59
2022-12-03T22:12:45.689Z,101133.97
2022-12-03T22:17:47.439Z,101135.16
2022-12-03T22:22:48.762Z,101119.00
2022-12-03T22:27:50.221Z,101124.41
2022-12-03T22:32:51.609Z,101126.03
2022-12-03T22:37:53.054Z,101120.38
2022-12-03T22:42:54.371Z,101115.69
2022-12-03T22:47:55.678Z,101113.09
2022-12-03T22:52:56.978Z,101110.78
2022-12-03T22:57:58.354Z,101106.88
2022-12-03T23:02:59.943Z,101103.84
2022-12-03T23:08:01.441Z,101100.88
2022-12-03T23:13:03.358Z,101103.44
2022-12-03T23:18:04.743Z,101101.84
2022-12-03T23:23:06.079Z,101103.44
2022-12-03T23:28:07.643Z,101096.94
2022-12-03T23:33:08.991Z,101086.63
2022-12-03T23:38:10.359Z,101087.72
2022-12-03T23:43:11.734Z,101093.69
2022-12-03T23:48:13.109Z,101088.94
2022-12-03T23:53:14.680Z,101087.56
2022-12-03T23:58:16.125Z,101083.22
